createdAt,value
2023-05-10T00:00:20.739Z,25.00
2023-05-10T00:01:20.774Z,25.00
2023-05-10T00:02:20.835Z,25.00
2023-05-10T00:03:20.972Z,0.00
2023-05-10T00:04:20.957Z,0.00
2023-05-10T00:05:20.971Z,0.00
2023-05-10T00:06:20.996Z,0.00
2023-05-10T00:07:21.053Z,0.00
2023-05-10T00:08:21.111Z,6.77
2023-05-10T00:09:21.153Z,25.00
2023-05-10T00:10:21.207Z,24.06
2023-05-10T00:11:22.867Z,25.29
2023-05-10T00:12:21.273Z,25.86
2023-05-10T00:13:21.366Z,25.15
2023-05-10T00:14:21.305Z,28.80
2023-05-10T00:15:21.324Z,25.50
2023-05-10T00:16:21.393Z,26.31
2023-05-10T00:17:21.368Z,26.14
2023-05-10T00:18:21.401Z,27.56
2023-05-10T00:19:21.399Z,30.38
2023-05-10T00:20:21.421Z,25.85
2023-05-10T00:21:21.456Z,25.00
2023-05-10T00:22:21.447Z,26.64
2023-05-10T00:23:21.467Z,28.05
2023-05-10T00:24:21.471Z,26.30
2023-05-10T00:25:21.485Z,26.65
2023-05-10T00:26:21.509Z,25.00
2023-05-10T00:27:21.544Z,28.23
2023-05-10T00:28:21.528Z,27.64
2023-05-10T00:29:21.562Z,28.37
2023-05-10T00:30:21.567Z,30.81
2023-05-10T00:31:21.574Z,27.84
2023-05-10T00:32:21.702Z,26.67
2023-05-10T00:33:21.598Z,30.01
2023-05-10T00:34:21.610Z,31.34
2023-05-10T00:35:21.613Z,25.17
2023-05-10T00:36:21.627Z,29.33
2023-05-10T00:37:21.630Z,28.20
2023-05-10T00:38:21.649Z,25.35
2023-05-10T00:39:21.670Z,28.06
2023-05-10T00:40:21.687Z,29.34
2023-05-10T00:41:21.695Z,31.00
2023-05-10T00:42:21.704Z,27.30
2023-05-10T00:43:21.723Z,28.63
2023-05-10T00:44:21.738Z,27.77
2023-05-10T00:45:21.820Z,28.60
2023-05-10T00:46:21.931Z,25.00
2023-05-10T00:47:21.970Z,27.17
2023-05-10T00:48:21.983Z,29.80
2023-05-10T00:49:22.058Z,30.70
2023-05-10T00:50:22.140Z,27.51
2023-05-10T00:51:22.188Z,27.95
2023-05-10T00:52:22.256Z,27.71
2023-05-10T00:53:22.320Z,30.08
2023-05-10T00:54:22.392Z,27.34
2023-05-10T00:55:22.465Z,26.86
2023-05-10T00:56:22.536Z,28.24
2023-05-10T00:57:22.597Z,27.59
2023-05-10T00:58:22.673Z,30.17
2023-05-10T00:59:22.739Z,29.63
2023-05-10T01:00:22.800Z,28.93
2023-05-10T01:01:22.914Z,28.62
2023-05-10T01:02:22.955Z,30.58
2023-05-10T01:03:23.110Z,28.00
2023-05-10T01:04:23.051Z,26.98
2023-05-10T01:05:23.176Z,28.50
2023-05-10T01:06:23.186Z,27.74
2023-05-10T01:07:23.255Z,25.00
2023-05-10T01:08:23.322Z,28.81
2023-05-10T01:09:23.407Z,25.00
2023-05-10T01:10:23.452Z,29.10
2023-05-10T01:11:23.528Z,28.76
2023-05-10T01:12:23.610Z,28.66
2023-05-10T01:13:23.693Z,29.63
2023-05-10T01:14:23.747Z,28.48
2023-05-10T01:15:23.792Z,29.89
2023-05-10T01:16:23.966Z,28.93
2023-05-10T01:17:24.001Z,27.79
2023-05-10T01:18:24.017Z,27.43
2023-05-10T01:19:24.086Z,29.45
2023-05-10T01:20:24.170Z,27.22
2023-05-10T01:21:24.226Z,27.17
2023-05-10T01:22:24.303Z,28.48
2023-05-10T01:23:24.377Z,27.79
2023-05-10T01:24:24.437Z,29.30
2023-05-10T01:25:24.517Z,27.21
2023-05-10T01:26:24.592Z,27.64
2023-05-10T01:27:24.662Z,30.41
2023-05-10T01:28:24.736Z,28.64
2023-05-10T01:29:24.810Z,29.18
2023-05-10T01:30:25.057Z,27.92
2023-05-10T01:31:25.008Z,28.90
2023-05-10T01:32:25.041Z,31.02
2023-05-10T01:33:25.122Z,28.93
2023-05-10T01:34:25.158Z,29.27
2023-05-10T01:35:25.230Z,30.07
2023-05-10T01:36:25.302Z,30.02
2023-05-10T01:37:25.367Z,29.17
2023-05-10T01:38:25.436Z,28.34
2023-05-10T01:39:25.519Z,27.43
2023-05-10T01:40:26.283Z,28.20
2023-05-10T01:41:25.655Z,30.32
2023-05-10T01:42:25.725Z,29.41
2023-05-10T01:43:25.832Z,29.73
2023-05-10T01:44:25.889Z,29.30
2023-05-10T01:45:25.937Z,27.75
2023-05-10T01:46:26.092Z,29.99
2023-05-10T01:47:26.113Z,27.86
2023-05-10T01:48:26.171Z,28.36
2023-05-10T01:49:26.263Z,29.42
2023-05-10T01:50:26.306Z,30.21
2023-05-10T01:51:26.374Z,30.85
2023-05-10T01:52:26.450Z,29.07
2023-05-10T01:53:26.598Z,29.87
2023-05-10T01:54:26.591Z,29.59
2023-05-10T01:55:26.649Z,28.56
2023-05-10T01:56:26.717Z,29.88
2023-05-10T01:57:26.779Z,29.94
2023-05-10T01:58:26.853Z,29.32
2023-05-10T01:59:26.915Z,28.50
2023-05-10T02:00:26.985Z,29.63
2023-05-10T02:01:27.065Z,28.98
2023-05-10T02:02:27.166Z,30.08
2023-05-10T02:03:27.215Z,29.96
2023-05-10T02:04:27.263Z,30.05
2023-05-10T02:05:27.366Z,29.87
2023-05-10T02:06:27.401Z,29.50
2023-05-10T02:07:27.482Z,30.15
2023-05-10T02:08:27.561Z,29.85
2023-05-10T02:09:27.623Z,29.34
2023-05-10T02:10:27.700Z,30.70
2023-05-10T02:11:27.768Z,31.23
2023-05-10T02:12:27.852Z,30.21
2023-05-10T02:13:27.998Z,29.76
2023-05-10T02:14:27.999Z,31.10
2023-05-10T02:15:28.071Z,29.55
2023-05-10T02:16:28.157Z,31.28
2023-05-10T02:17:28.210Z,31.63
2023-05-10T02:18:28.282Z,32.45
2023-05-10T02:19:28.341Z,31.41
2023-05-10T02:20:28.428Z,31.45
2023-05-10T02:21:28.512Z,29.46
2023-05-10T02:22:28.566Z,30.22
2023-05-10T02:23:28.642Z,29.41
2023-05-10T02:24:28.723Z,31.83
2023-05-10T02:25:28.802Z,30.98
2023-05-10T02:26:28.873Z,31.52
2023-05-10T02:27:28.950Z,32.31
2023-05-10T02:28:29.030Z,32.26
2023-05-10T02:29:29.100Z,29.91
2023-05-10T02:30:29.186Z,30.91
2023-05-10T02:31:29.343Z,31.31
2023-05-10T02:32:29.356Z,31.33
2023-05-10T02:33:29.424Z,31.18
2023-05-10T02:34:29.491Z,31.23
2023-05-10T02:35:29.584Z,30.80
2023-05-10T02:36:29.666Z,31.11
2023-05-10T02:37:29.762Z,32.09
2023-05-10T02:38:29.823Z,31.09
2023-05-10T02:39:29.903Z,33.58
2023-05-10T02:40:29.982Z,31.57
2023-05-10T02:41:30.058Z,32.30
2023-05-10T02:42:30.150Z,32.35
2023-05-10T02:43:30.234Z,33.36
2023-05-10T02:44:30.307Z,31.28
2023-05-10T02:45:30.395Z,32.86
2023-05-10T02:46:30.534Z,33.31
2023-05-10T02:47:30.569Z,31.39
2023-05-10T02:48:30.634Z,33.05
2023-05-10T02:49:30.720Z,33.08
2023-05-10T02:50:30.796Z,31.85
2023-05-10T02:51:30.884Z,32.46
2023-05-10T02:52:30.968Z,31.44
2023-05-10T02:53:31.093Z,33.73
2023-05-10T02:54:31.133Z,33.01
2023-05-10T02:55:31.222Z,31.40
2023-05-10T02:56:31.301Z,32.53
2023-05-10T02:57:31.389Z,31.62
2023-05-10T02:58:31.460Z,33.33
2023-05-10T02:59:31.546Z,31.86
2023-05-10T03:00:31.630Z,32.55
2023-05-10T03:01:31.778Z,31.72
2023-05-10T03:02:31.964Z,32.86
2023-05-10T03:03:31.890Z,33.18
2023-05-10T03:04:31.990Z,33.78
2023-05-10T03:05:32.068Z,33.38
2023-05-10T03:06:32.133Z,34.16
2023-05-10T03:07:32.208Z,33.30
2023-05-10T03:08:32.295Z,32.92
2023-05-10T03:09:32.402Z,33.40
2023-05-10T03:10:32.476Z,32.78
2023-05-10T03:11:32.552Z,34.95
2023-05-10T03:12:32.647Z,32.01
2023-05-10T03:13:32.862Z,32.22
2023-05-10T03:14:32.823Z,33.96
2023-05-10T03:15:32.908Z,32.51
2023-05-10T03:16:33.111Z,34.66
2023-05-10T03:17:33.095Z,33.47
2023-05-10T03:18:33.157Z,35.09
2023-05-10T03:19:33.269Z,34.66
2023-05-10T03:20:33.325Z,32.47
2023-05-10T03:21:33.409Z,33.79
2023-05-10T03:22:33.502Z,32.04
2023-05-10T03:23:33.591Z,34.34
2023-05-10T03:24:33.669Z,33.00
2023-05-10T03:25:33.776Z,34.22
2023-05-10T03:26:33.855Z,32.69
2023-05-10T03:27:33.973Z,33.64
2023-05-10T03:28:34.028Z,33.10
2023-05-10T03:29:34.108Z,32.72
2023-05-10T03:30:34.191Z,32.32
2023-05-10T03:31:34.326Z,32.94
2023-05-10T03:32:34.390Z,34.57
2023-05-10T03:33:35.336Z,32.99
2023-05-10T03:34:34.553Z,32.59
2023-05-10T03:35:34.633Z,34.02
2023-05-10T03:36:34.720Z,32.83
2023-05-10T03:37:34.810Z,34.53
2023-05-10T03:38:34.882Z,33.86
2023-05-10T03:39:34.982Z,35.31
2023-05-10T03:40:35.067Z,33.77
2023-05-10T03:41:35.178Z,34.12
2023-05-10T03:42:35.244Z,32.98
2023-05-10T03:43:35.320Z,33.39
2023-05-10T03:44:35.407Z,34.76
2023-05-10T03:45:35.482Z,33.60
2023-05-10T03:46:35.623Z,34.91
2023-05-10T03:47:35.663Z,34.58
2023-05-10T03:48:35.756Z,34.87
2023-05-10T03:49:35.849Z,35.07
2023-05-10T03:50:35.930Z,33.93
2023-05-10T03:51:36.004Z,35.87
2023-05-10T03:52:36.091Z,34.00
2023-05-10T03:53:36.177Z,34.12
2023-05-10T03:54:36.243Z,34.18
2023-05-10T03:55:36.309Z,34.14
2023-05-10T03:56:36.380Z,36.26
2023-05-10T03:57:36.458Z,36.19
2023-05-10T03:58:36.471Z,33.84
2023-05-10T03:59:36.565Z,34.56
2023-05-10T04:00:36.554Z,35.40
2023-05-10T04:01:36.757Z,36.30
2023-05-10T04:02:36.928Z,35.71
2023-05-10T04:03:36.853Z,35.96
2023-05-10T04:04:36.819Z,36.80
2023-05-10T04:05:36.871Z,35.91
2023-05-10T04:06:36.964Z,34.25
2023-05-10T04:07:36.982Z,35.79
2023-05-10T04:08:37.036Z,34.84
2023-05-10T04:09:37.067Z,35.21
2023-05-10T04:10:37.123Z,36.62
2023-05-10T04:11:37.208Z,34.76
2023-05-10T04:12:37.228Z,35.15
2023-05-10T04:13:37.337Z,35.64
2023-05-10T04:14:37.350Z,37.29
2023-05-10T04:15:37.428Z,37.15
2023-05-10T04:16:37.655Z,36.93
2023-05-10T04:17:37.614Z,37.31
2023-05-10T04:18:37.650Z,36.43
2023-05-10T04:19:37.718Z,36.27
2023-05-10T04:20:37.793Z,36.28
2023-05-10T04:21:37.845Z,36.46
2023-05-10T04:22:37.906Z,37.04
2023-05-10T04:23:37.980Z,36.11
2023-05-10T04:24:38.058Z,34.68
2023-05-10T04:25:38.133Z,36.76
2023-05-10T04:26:38.192Z,36.71
2023-05-10T04:27:38.269Z,36.21
2023-05-10T04:28:38.344Z,36.53
2023-05-10T04:29:38.434Z,36.43
2023-05-10T04:30:38.535Z,37.07
2023-05-10T04:31:38.546Z,37.10
2023-05-10T04:32:38.658Z,35.60
2023-05-10T04:33:38.693Z,34.97
2023-05-10T04:34:38.759Z,37.08
2023-05-10T04:35:38.859Z,36.14
2023-05-10T04:36:38.881Z,36.20
2023-05-10T04:37:38.952Z,37.75
2023-05-10T04:38:38.986Z,37.36
2023-05-10T04:39:40.965Z,35.79
2023-05-10T04:40:39.049Z,36.00
2023-05-10T04:41:39.126Z,36.22
2023-05-10T04:42:39.071Z,36.82
2023-05-10T04:43:39.266Z,36.82
2023-05-10T04:44:39.141Z,37.38
2023-05-10T04:45:39.140Z,37.58
2023-05-10T04:46:39.186Z,39.15
2023-05-10T04:47:39.206Z,37.49
2023-05-10T04:48:39.181Z,36.78
2023-05-10T04:49:39.300Z,37.30
2023-05-10T04:50:39.202Z,37.51
2023-05-10T04:51:39.185Z,35.59
2023-05-10T04:52:39.200Z,38.18
2023-05-10T04:53:39.852Z,37.08
2023-05-10T04:54:39.379Z,37.02
2023-05-10T04:55:39.248Z,37.64
2023-05-10T04:56:39.260Z,37.57
2023-05-10T04:57:39.280Z,35.81
2023-05-10T04:58:39.287Z,36.20
2023-05-10T04:59:39.305Z,37.33
2023-05-10T05:00:39.327Z,36.70
2023-05-10T05:01:39.917Z,37.60
2023-05-10T05:02:39.437Z,36.42
2023-05-10T05:03:39.436Z,36.25
2023-05-10T05:04:39.368Z,38.63
2023-05-10T05:05:39.379Z,37.97
2023-05-10T05:06:39.433Z,36.99
2023-05-10T05:07:39.391Z,37.23
2023-05-10T05:08:40.352Z,37.26
2023-05-10T05:09:39.434Z,30.99
2023-05-10T05:10:39.439Z,25.57
2023-05-10T05:11:39.462Z,25.00
2023-05-10T05:12:39.479Z,25.73
2023-05-10T05:13:39.485Z,27.38
2023-05-10T05:14:39.508Z,29.16
2023-05-10T05:15:39.519Z,32.04
2023-05-10T05:16:39.606Z,33.05
2023-05-10T05:17:39.615Z,35.85
2023-05-10T05:18:39.559Z,39.21
2023-05-10T05:19:39.891Z,39.20
2023-05-10T05:20:39.860Z,36.73
2023-05-10T05:21:39.590Z,29.03
2023-05-10T05:22:39.613Z,25.97
2023-05-10T05:23:39.671Z,25.00
2023-05-10T05:24:39.802Z,25.32
2023-05-10T05:25:39.809Z,27.39
2023-05-10T05:26:39.840Z,26.99
2023-05-10T05:27:39.912Z,29.22
2023-05-10T05:28:39.928Z,30.66
2023-05-10T05:29:40.005Z,32.11
2023-05-10T05:30:40.066Z,31.33
2023-05-10T05:31:40.154Z,31.86
2023-05-10T05:32:40.175Z,34.94
2023-05-10T05:33:41.214Z,34.15
2023-05-10T05:34:40.237Z,33.74
2023-05-10T05:35:40.289Z,31.81
2023-05-10T05:36:40.358Z,33.50
2023-05-10T05:37:40.433Z,32.93
2023-05-10T05:38:40.496Z,34.92
2023-05-10T05:39:40.566Z,35.36
2023-05-10T05:40:40.648Z,34.96
2023-05-10T05:41:40.707Z,30.09
2023-05-10T05:42:40.745Z,28.62
2023-05-10T05:43:40.792Z,28.58
2023-05-10T05:44:41.370Z,29.19
2023-05-10T05:45:40.999Z,29.03
2023-05-10T05:46:41.060Z,25.00
2023-05-10T05:47:41.180Z,26.28
2023-05-10T05:48:41.173Z,29.46
2023-05-10T05:49:42.399Z,30.21
2023-05-10T05:50:41.368Z,32.67
2023-05-10T05:51:41.390Z,33.24
2023-05-10T05:52:41.436Z,34.90
2023-05-10T05:53:41.502Z,33.96
2023-05-10T05:54:41.881Z,33.82
2023-05-10T05:55:41.631Z,34.26
2023-05-10T05:56:41.675Z,32.81
2023-05-10T05:57:41.939Z,34.06
2023-05-10T05:58:41.812Z,37.04
2023-05-10T05:59:42.378Z,37.63
2023-05-10T06:00:41.973Z,37.27
2023-05-10T06:01:42.042Z,33.81
2023-05-10T06:02:49.555Z,36.11
2023-05-10T06:03:42.186Z,36.44
2023-05-10T06:04:44.683Z,37.45
2023-05-10T06:05:42.134Z,36.51
2023-05-10T06:06:42.195Z,37.04
2023-05-10T06:07:42.397Z,36.27
2023-05-10T06:08:42.185Z,36.71
2023-05-10T06:09:42.206Z,39.23
2023-05-10T06:10:42.240Z,43.89
2023-05-10T06:11:42.259Z,43.65
2023-05-10T06:12:42.409Z,41.79
2023-05-10T06:13:42.882Z,42.72
2023-05-10T06:14:42.376Z,39.01
2023-05-10T06:15:42.350Z,41.00
2023-05-10T06:16:42.410Z,40.08
2023-05-10T06:17:42.402Z,39.54
2023-05-10T06:18:42.422Z,38.35
2023-05-10T06:19:42.442Z,38.47
2023-05-10T06:20:42.443Z,37.92
2023-05-10T06:21:42.491Z,39.03
2023-05-10T06:22:42.490Z,38.61
2023-05-10T06:23:42.524Z,39.12
2023-05-10T06:24:42.887Z,40.50
2023-05-10T06:25:42.563Z,42.02
2023-05-10T06:26:42.629Z,40.51
2023-05-10T06:27:42.589Z,36.52
2023-05-10T06:28:42.614Z,32.39
2023-05-10T06:29:42.891Z,31.69
2023-05-10T06:30:42.673Z,30.61
2023-05-10T06:31:42.697Z,31.10
2023-05-10T06:32:42.739Z,26.21
2023-05-10T06:33:42.737Z,25.93
2023-05-10T06:34:42.898Z,27.17
2023-05-10T06:35:42.757Z,26.03
2023-05-10T06:36:43.388Z,27.81
2023-05-10T06:37:42.826Z,26.07
2023-05-10T06:38:42.892Z,25.98
2023-05-10T06:39:42.849Z,27.21
2023-05-10T06:40:42.883Z,26.39
2023-05-10T06:41:42.903Z,25.67
2023-05-10T06:42:42.950Z,25.00
2023-05-10T06:43:43.025Z,26.22
2023-05-10T06:44:43.406Z,26.04
2023-05-10T06:45:43.929Z,25.00
2023-05-10T06:46:43.275Z,28.23
2023-05-10T06:47:44.240Z,26.47
2023-05-10T06:48:43.424Z,27.57
2023-05-10T06:49:43.285Z,25.97
2023-05-10T06:50:43.404Z,26.70
2023-05-10T06:51:44.367Z,25.93
2023-05-10T06:52:44.067Z,26.73
2023-05-10T06:53:43.504Z,29.58
2023-05-10T06:55:43.587Z,25.33
2023-05-10T06:56:43.597Z,25.68
2023-05-10T06:57:43.656Z,22.75
2023-05-10T06:58:43.658Z,20.94
2023-05-10T06:59:43.660Z,16.45
2023-05-10T07:00:46.950Z,27.07
2023-05-10T07:01:43.769Z,27.18
2023-05-10T07:02:43.767Z,27.29
2023-05-10T07:03:43.733Z,27.59
2023-05-10T07:04:43.957Z,30.01
2023-05-10T07:05:43.813Z,27.95
2023-05-10T07:06:43.777Z,30.28
2023-05-10T07:07:43.805Z,29.35
2023-05-10T07:08:43.832Z,30.47
2023-05-10T07:09:43.862Z,32.73
2023-05-10T07:10:43.856Z,28.99
2023-05-10T07:11:43.863Z,27.76
2023-05-10T07:12:43.935Z,26.13
2023-05-10T07:13:43.952Z,25.59
2023-05-10T07:14:44.407Z,26.89
2023-05-10T07:15:43.993Z,26.33
2023-05-10T07:16:44.457Z,25.24
2023-05-10T07:17:45.802Z,26.06
2023-05-10T07:18:44.112Z,26.13
2023-05-10T07:19:44.061Z,26.60
2023-05-10T07:20:44.082Z,26.66
2023-05-10T07:21:44.107Z,21.19
2023-05-10T07:22:44.140Z,14.56
2023-05-10T07:23:45.222Z,26.25
2023-05-10T07:24:44.177Z,27.64
2023-05-10T07:25:44.228Z,27.64
2023-05-10T07:26:44.477Z,25.00
2023-05-10T07:27:44.248Z,25.00
2023-05-10T07:28:44.408Z,25.00
2023-05-10T07:29:44.289Z,25.30
2023-05-10T07:30:44.360Z,27.17
2023-05-10T07:31:44.471Z,27.09
2023-05-10T07:32:44.389Z,27.16
2023-05-10T07:33:44.421Z,25.00
2023-05-10T07:34:44.438Z,25.20
2023-05-10T07:35:44.472Z,25.00
2023-05-10T07:36:44.500Z,25.02
2023-05-10T07:37:47.700Z,26.08
2023-05-10T07:38:44.520Z,26.36
2023-05-10T07:39:44.922Z,26.78
2023-05-10T07:40:44.583Z,26.22
2023-05-10T07:41:45.618Z,23.57
2023-05-10T07:42:44.616Z,22.32
2023-05-10T07:43:44.639Z,25.25
2023-05-10T07:44:44.944Z,25.32
2023-05-10T07:45:44.930Z,27.85
2023-05-10T07:46:44.703Z,25.30
2023-05-10T07:47:44.824Z,28.96
2023-05-10T07:48:44.793Z,25.00
2023-05-10T07:49:44.948Z,25.47
2023-05-10T07:50:44.912Z,25.22
2023-05-10T07:51:45.109Z,26.35
2023-05-10T07:52:44.998Z,25.81
2023-05-10T07:53:44.887Z,25.86
2023-05-10T07:54:45.413Z,29.17
2023-05-10T07:55:44.946Z,28.69
2023-05-10T07:57:16.874Z,31.17
2023-05-10T07:57:45.447Z,31.47
2023-05-10T07:58:45.025Z,32.32
2023-05-10T07:59:45.450Z,31.04
2023-05-10T08:00:45.080Z,30.45
2023-05-10T08:01:45.418Z,28.89
2023-05-10T08:02:45.271Z,29.35
2023-05-10T08:03:45.218Z,30.31
2023-05-10T08:04:45.452Z,34.90
2023-05-10T08:05:45.248Z,37.34
2023-05-10T08:06:45.419Z,38.18
2023-05-10T08:07:45.401Z,36.72
2023-05-10T08:08:52.721Z,37.53
2023-05-10T08:09:45.360Z,37.83
2023-05-10T08:10:45.358Z,37.77
2023-05-10T08:11:45.386Z,37.03
2023-05-10T08:12:45.438Z,35.10
2023-05-10T08:13:45.459Z,32.99
2023-05-10T08:14:45.926Z,32.42
2023-05-10T08:15:45.533Z,28.64
2023-05-10T08:16:45.522Z,26.06
2023-05-10T08:17:45.594Z,25.80
2023-05-10T08:18:45.627Z,28.10
2023-05-10T08:19:45.929Z,25.88
2023-05-10T08:20:45.646Z,25.00
2023-05-10T08:21:45.664Z,25.63
2023-05-10T08:22:46.769Z,27.31
2023-05-10T08:23:45.722Z,31.21
2023-05-10T08:24:45.921Z,29.75
2023-05-10T08:25:45.770Z,31.83
2023-05-10T08:26:45.819Z,36.30
2023-05-10T08:27:45.824Z,34.07
2023-05-10T08:28:45.856Z,35.06
2023-05-10T08:29:50.108Z,35.07
2023-05-10T08:30:45.868Z,35.27
2023-05-10T08:31:45.909Z,35.48
2023-05-10T08:32:45.960Z,33.00
2023-05-10T08:33:45.942Z,32.18
2023-05-10T08:34:46.421Z,30.88
2023-05-10T08:35:46.018Z,35.50
2023-05-10T08:36:46.061Z,34.87
2023-05-10T08:37:46.068Z,33.58
2023-05-10T08:38:46.083Z,33.19
2023-05-10T08:39:46.470Z,30.72
2023-05-10T08:40:47.129Z,31.34
2023-05-10T08:41:46.428Z,35.48
2023-05-10T08:42:46.149Z,36.26
2023-05-10T08:43:49.436Z,34.71
2023-05-10T08:44:49.348Z,30.89
2023-05-10T08:45:46.461Z,34.76
2023-05-10T08:46:46.278Z,31.58
2023-05-10T08:47:46.343Z,33.04
2023-05-10T08:48:46.282Z,33.98
2023-05-10T08:49:46.444Z,28.37
2023-05-10T08:50:46.460Z,26.77
2023-05-10T08:51:46.354Z,28.47
2023-05-10T08:52:46.373Z,25.22
2023-05-10T08:53:46.457Z,25.95
2023-05-10T08:54:46.454Z,29.00
2023-05-10T08:55:46.452Z,29.53
2023-05-10T08:56:48.628Z,28.96
2023-05-10T08:57:46.486Z,29.23
2023-05-10T08:58:46.939Z,29.89
2023-05-10T08:59:46.617Z,30.57
2023-05-10T09:00:46.959Z,31.62
2023-05-10T09:01:46.528Z,33.67
2023-05-10T09:02:46.565Z,32.16
2023-05-10T09:03:46.604Z,31.64
2023-05-10T09:04:47.024Z,32.48
2023-05-10T09:05:46.613Z,32.65
2023-05-10T09:06:46.617Z,29.94
2023-05-10T09:07:47.273Z,31.88
2023-05-10T09:08:46.657Z,33.04
2023-05-10T09:09:46.681Z,33.95
2023-05-10T09:10:46.942Z,32.23
2023-05-10T09:11:46.706Z,32.53
2023-05-10T09:12:46.731Z,34.93
2023-05-10T09:13:46.760Z,35.66
2023-05-10T09:14:47.732Z,33.12
2023-05-10T09:15:46.967Z,33.66
2023-05-10T09:16:46.847Z,38.42
2023-05-10T09:17:46.856Z,35.26
2023-05-10T09:18:46.928Z,35.91
2023-05-10T09:19:47.865Z,35.19
2023-05-10T09:20:46.946Z,36.02
2023-05-10T09:21:46.921Z,38.51
2023-05-10T09:22:46.933Z,37.79
2023-05-10T09:23:48.451Z,34.82
2023-05-10T09:24:46.959Z,33.90
2023-05-10T09:25:47.475Z,37.74
2023-05-10T09:26:46.967Z,41.62
2023-05-10T09:27:46.991Z,39.14
2023-05-10T09:28:46.991Z,38.07
2023-05-10T09:29:47.453Z,36.66
2023-05-10T09:30:47.090Z,40.40
2023-05-10T09:31:47.108Z,40.42
2023-05-10T09:32:47.760Z,42.81
2023-05-10T09:33:47.068Z,41.32
2023-05-10T09:34:47.452Z,38.66
2023-05-10T09:35:47.452Z,37.29
2023-05-10T09:36:47.109Z,33.85
2023-05-10T09:37:47.164Z,34.82
2023-05-10T09:38:47.459Z,33.16
2023-05-10T09:39:47.171Z,33.38
2023-05-10T09:40:47.191Z,29.52
2023-05-10T09:41:47.955Z,25.90
2023-05-10T09:42:47.225Z,25.95
2023-05-10T09:43:47.240Z,26.57
2023-05-10T09:44:47.279Z,25.00
2023-05-10T09:45:47.465Z,25.87
2023-05-10T09:46:47.309Z,26.63
2023-05-10T09:47:47.392Z,27.28
2023-05-10T09:48:47.341Z,27.47
2023-05-10T09:49:47.453Z,27.22
2023-05-10T09:50:47.379Z,27.93
2023-05-10T09:51:47.400Z,31.10
2023-05-10T09:52:47.427Z,29.53
2023-05-10T09:53:47.468Z,25.76
2023-05-10T09:54:47.456Z,26.42
2023-05-10T09:56:03.078Z,26.42
2023-05-10T09:56:47.958Z,26.68
2023-05-10T09:57:47.506Z,26.70
2023-05-10T09:58:47.519Z,26.63
2023-05-10T09:59:47.553Z,22.50
2023-05-10T10:00:47.962Z,19.74
2023-05-10T10:01:47.627Z,18.69
2023-05-10T10:02:47.650Z,26.98
2023-05-10T10:03:47.673Z,25.00
2023-05-10T10:04:47.665Z,26.21
2023-05-10T10:05:47.981Z,25.00
2023-05-10T10:06:47.675Z,27.53
2023-05-10T10:07:47.694Z,27.09
2023-05-10T10:08:47.720Z,25.16
2023-05-10T10:09:47.963Z,26.77
2023-05-10T10:10:47.772Z,25.31
2023-05-10T10:11:47.793Z,26.21
2023-05-10T10:12:47.803Z,26.99
2023-05-10T10:13:47.827Z,25.23
2023-05-10T10:14:47.876Z,30.19
2023-05-10T10:15:47.987Z,28.73
2023-05-10T10:16:59.883Z,26.59
2023-05-10T10:17:48.039Z,26.80
2023-05-10T10:18:48.545Z,26.88
2023-05-10T10:19:48.031Z,27.64
2023-05-10T10:20:48.473Z,28.59
2023-05-10T10:21:48.041Z,32.98
2023-05-10T10:22:48.068Z,34.00
2023-05-10T10:23:48.096Z,34.40
2023-05-10T10:24:48.108Z,33.56
2023-05-10T10:25:48.471Z,32.73
2023-05-10T10:26:48.140Z,30.78
2023-05-10T10:27:48.159Z,33.14
2023-05-10T10:28:48.176Z,29.47
2023-05-10T10:29:48.196Z,30.22
2023-05-10T10:30:48.478Z,29.71
2023-05-10T10:31:48.293Z,26.60
2023-05-10T10:32:48.255Z,27.68
2023-05-10T10:33:48.435Z,32.93
2023-05-10T10:34:48.284Z,37.13
2023-05-10T10:35:48.512Z,34.77
2023-05-10T10:36:48.322Z,32.51
2023-05-10T10:37:48.368Z,31.50
2023-05-10T10:38:48.488Z,33.73
2023-05-10T10:39:49.475Z,34.36
2023-05-10T10:40:48.626Z,38.20
2023-05-10T10:41:48.975Z,38.70
2023-05-10T10:42:48.713Z,40.21
2023-05-10T10:43:48.802Z,39.71
2023-05-10T10:44:48.863Z,42.61
2023-05-10T10:45:48.950Z,35.92
2023-05-10T10:46:49.532Z,34.88
2023-05-10T10:47:49.110Z,36.42
2023-05-10T10:48:49.167Z,37.93
2023-05-10T10:49:49.203Z,37.85
2023-05-10T10:50:49.274Z,35.68
2023-05-10T10:51:49.378Z,37.87
2023-05-10T10:52:49.513Z,43.20
2023-05-10T10:53:49.501Z,43.45
2023-05-10T10:54:49.588Z,45.62
2023-05-10T10:55:50.326Z,47.59
2023-05-10T10:56:49.840Z,46.78
2023-05-10T10:57:49.987Z,45.52
2023-05-10T10:58:49.936Z,46.77
2023-05-10T10:59:50.007Z,48.26
2023-05-10T11:00:50.086Z,45.08
2023-05-10T11:01:50.498Z,42.10
2023-05-10T11:02:50.325Z,44.10
2023-05-10T11:03:50.367Z,43.44
2023-05-10T11:04:50.557Z,42.37
2023-05-10T11:05:50.531Z,42.52
2023-05-10T11:06:50.581Z,41.08
2023-05-10T11:07:50.691Z,43.94
2023-05-10T11:08:50.726Z,44.54
2023-05-10T11:09:50.989Z,43.84
2023-05-10T11:10:50.927Z,46.24
2023-05-10T11:11:50.987Z,46.41
2023-05-10T11:12:51.069Z,47.52
2023-05-10T11:13:51.720Z,48.89
2023-05-10T11:14:51.241Z,47.32
2023-05-10T11:15:51.521Z,48.03
2023-05-10T11:16:51.499Z,51.23
2023-05-10T11:17:51.503Z,54.93
2023-05-10T11:18:51.634Z,60.08
2023-05-10T11:19:51.662Z,53.08
2023-05-10T11:20:52.016Z,50.86
2023-05-10T11:21:51.826Z,45.89
2023-05-10T11:22:51.912Z,45.61
2023-05-10T11:23:51.993Z,47.40
2023-05-10T11:24:52.040Z,42.66
2023-05-10T11:25:52.188Z,40.71
2023-05-10T11:26:52.243Z,41.53
2023-05-10T11:27:53.289Z,43.27
2023-05-10T11:28:52.360Z,41.52
2023-05-10T11:29:52.431Z,40.00
2023-05-10T11:30:53.025Z,32.71
2023-05-10T11:31:52.620Z,25.93
2023-05-10T11:32:52.728Z,25.86
2023-05-10T11:33:53.773Z,40.44
2023-05-10T11:34:52.864Z,43.87
2023-05-10T11:35:52.952Z,49.79
2023-05-10T11:36:53.032Z,43.12
2023-05-10T11:37:53.112Z,39.67
2023-05-10T11:38:53.200Z,44.55
2023-05-10T11:39:53.424Z,39.98
2023-05-10T11:40:53.389Z,29.06
2023-05-10T11:41:53.453Z,25.90
2023-05-10T11:42:54.007Z,26.46
2023-05-10T11:43:53.623Z,25.82
2023-05-10T11:44:53.706Z,26.53
2023-05-10T11:45:53.850Z,25.30
2023-05-10T11:46:53.867Z,25.44
2023-05-10T11:47:53.980Z,30.34
2023-05-10T11:48:54.043Z,35.07
2023-05-10T11:49:54.122Z,32.67
2023-05-10T11:50:54.196Z,37.67
2023-05-10T11:51:54.277Z,40.35
2023-05-10T11:52:54.399Z,37.02
2023-05-10T11:53:54.429Z,32.40
2023-05-10T11:54:54.512Z,32.40
2023-05-10T11:55:54.612Z,26.47
2023-05-10T11:56:54.666Z,27.28
2023-05-10T11:57:54.750Z,25.34
2023-05-10T11:58:55.003Z,25.00
2023-05-10T11:59:54.913Z,30.26
2023-05-10T12:00:54.994Z,29.87
2023-05-10T12:01:55.503Z,30.50
2023-05-10T12:02:55.291Z,25.00
2023-05-10T12:03:55.405Z,25.10
2023-05-10T12:04:55.358Z,26.73
2023-05-10T12:05:55.379Z,35.36
2023-05-10T12:06:55.447Z,25.00
2023-05-10T12:07:55.499Z,31.15
2023-05-10T12:08:55.579Z,30.16
2023-05-10T12:09:55.662Z,30.54
2023-05-10T12:10:55.747Z,33.17
2023-05-10T12:11:56.056Z,31.49
2023-05-10T12:12:55.921Z,27.54
2023-05-10T12:14:03.381Z,25.65
2023-05-10T12:14:55.999Z,26.08
2023-05-10T12:15:56.599Z,27.36
2023-05-10T12:16:56.066Z,29.06
2023-05-10T12:17:59.765Z,34.65
2023-05-10T12:18:56.168Z,26.39
2023-05-10T12:19:56.066Z,28.67
2023-05-10T12:20:56.070Z,34.78
2023-05-10T12:21:56.087Z,43.28
2023-05-10T12:22:57.274Z,56.02
2023-05-10T12:23:56.085Z,57.07
2023-05-10T12:24:56.100Z,56.86
2023-05-10T12:25:56.125Z,46.31
2023-05-10T12:26:56.508Z,44.74
2023-05-10T12:27:56.146Z,47.80
2023-05-10T12:28:56.137Z,49.86
2023-05-10T12:29:56.140Z,48.68
2023-05-10T12:30:56.164Z,51.12
2023-05-10T12:31:56.273Z,49.79
2023-05-10T12:32:57.061Z,50.27
2023-05-10T12:33:56.190Z,56.86
2023-05-10T12:34:56.208Z,53.55
2023-05-10T12:35:56.209Z,50.87
2023-05-10T12:36:56.227Z,46.09
2023-05-10T12:37:56.250Z,50.76
2023-05-10T12:38:56.248Z,51.67
2023-05-10T12:39:56.255Z,53.53
2023-05-10T12:40:56.327Z,51.32
2023-05-10T12:41:56.302Z,52.12
2023-05-10T12:42:56.566Z,50.08
2023-05-10T12:43:56.487Z,49.93
2023-05-10T12:44:57.524Z,50.04
2023-05-10T12:45:56.647Z,51.69
2023-05-10T12:46:56.694Z,53.48
2023-05-10T12:47:56.789Z,59.74
2023-05-10T12:49:07.615Z,60.98
2023-05-10T12:49:56.815Z,61.31
2023-05-10T12:50:56.817Z,62.44
2023-05-10T12:51:56.830Z,64.05
2023-05-10T12:52:56.839Z,67.99
2023-05-10T12:53:56.851Z,70.35